Time;durP1;ratioP1;P1;durP2;ratioP2;P2;SDS_P1;SDS_P2;PMS_P1;PMS_P2;Temp;Humidity;BMP_temperature;BMP_pressure;BME280_temperature;BME280_humidity;BME280_pressure;Samples;Min_cycle;Max_cycle;Signal;HPM_P1;HPM_P2
2022/07/21 00:01:37;;;;;;;6.43;5.82;;;29.60;76.40;;;;;;5026142;28;20243;-68
2022/07/21 00:04:04;;;;;;;7.53;5.80;;;29.60;76.40;;;;;;5025786;28;20671;-67
2022/07/21 00:06:31;;;;;;;7.68;5.30;;;29.60;76.80;;;;;;5025994;28;20209;-68
2022/07/21 00:08:59;;;;;;;5.65;5.15;;;29.50;76.80;;;;;;5026037;28;20216;-68
2022/07/21 00:11:26;;;;;;;6.15;5.47;;;29.50;77.00;;;;;;5025673;28;20231;-68
2022/07/21 00:13:53;;;;;;;5.65;5.25;;;29.50;76.90;;;;;;5025814;28;20287;-68
2022/07/21 00:16:20;;;;;;;7.97;5.40;;;29.50;77.10;;;;;;5025877;28;20561;-68
2022/07/21 00:18:47;;;;;;;5.47;4.95;;;29.50;76.90;;;;;;5027183;27;20217;-69
2022/07/21 00:21:14;;;;;;;6.55;5.05;;;29.50;76.90;;;;;;5025433;28;20695;-68
2022/07/21 00:23:41;;;;;;;9.02;5.25;;;29.50;77.20;;;;;;5024754;28;20663;-68
2022/07/21 00:26:09;;;;;;;5.25;4.78;;;29.40;76.60;;;;;;5025711;28;20288;-68
2022/07/21 00:28:36;;;;;;;6.35;4.80;;;29.40;76.70;;;;;;5025332;28;20315;-68
2022/07/21 00:31:05;;;;;;;6.05;4.82;;;29.50;77.00;;;;;;5025746;28;20628;-67
2022/07/21 00:33:32;;;;;;;5.97;4.97;;;29.40;77.30;;;;;;5025773;28;20560;-67
2022/07/21 00:35:59;;;;;;;7.18;4.80;;;29.40;77.10;;;;;;5025549;28;20209;-67
2022/07/21 00:38:25;;;;;;;5.55;5.10;;;29.40;77.20;;;;;;5025499;28;20659;-67
2022/07/21 00:40:52;;;;;;;5.68;4.82;;;29.40;77.20;;;;;;5024984;28;20239;-67
2022/07/21 00:43:20;;;;;;;5.15;4.65;;;29.40;77.20;;;;;;5025530;28;20233;-67
2022/07/21 00:45:47;;;;;;;5.65;5.15;;;29.30;77.10;;;;;;5025490;28;20208;-67
2022/07/21 00:48:14;;;;;;;5.93;5.40;;;29.30;77.30;;;;;;5026595;28;20610;-67
2022/07/21 00:50:41;;;;;;;6.55;5.10;;;29.30;77.50;;;;;;5025123;28;20209;-67
2022/07/21 00:53:08;;;;;;;6.85;4.82;;;29.30;77.30;;;;;;5025313;28;20212;-67
2022/07/21 00:55:35;;;;;;;5.97;4.97;;;29.20;77.30;;;;;;5025106;28;20309;-68
2022/07/21 00:58:04;;;;;;;7.47;5.13;;;29.20;77.40;;;;;;5025271;28;20201;-68
2022/07/21 01:00:32;;;;;;;7.35;4.90;;;29.20;77.60;;;;;;5024916;28;20670;-67
2022/07/21 01:02:59;;;;;;;6.82;4.50;;;29.20;77.70;;;;;;5025120;28;20209;-67
2022/07/21 01:05:26;;;;;;;7.88;5.05;;;29.10;77.70;;;;;;5025019;28;20596;-67
2022/07/21 01:07:58;;;;;;;7.18;5.45;;;29.10;77.70;;;;;;5025177;28;20219;-67
2022/07/21 01:10:25;;;;;;;6.40;5.15;;;29.10;77.80;;;;;;5024887;28;20205;-67
2022/07/21 01:12:52;;;;;;;5.93;5.30;;;29.00;78.00;;;;;;5025156;28;20204;-67
2022/07/21 01:15:20;;;;;;;6.35;5.25;;;29.00;78.20;;;;;;5024921;28;20209;-67
2022/07/21 01:17:50;;;;;;;8.50;5.68;;;29.00;78.20;;;;;;5025609;28;20911;-68
2022/07/21 01:20:20;;;;;;;9.93;5.35;;;28.90;78.40;;;;;;5024688;28;20213;-68
2022/07/21 01:22:50;;;;;;;5.45;4.95;;;28.90;78.60;;;;;;5024348;28;20240;-68
2022/07/21 01:25:19;;;;;;;11.00;5.40;;;28.80;78.50;;;;;;5024932;28;20584;-67
2022/07/21 01:27:45;;;;;;;6.10;5.07;;;28.80;78.70;;;;;;5024750;28;20201;-69
2022/07/21 01:30:14;;;;;;;7.45;5.28;;;28.90;78.70;;;;;;5024918;28;20213;-69
2022/07/21 01:32:41;;;;;;;7.30;5.68;;;28.90;78.80;;;;;;5024754;28;20208;-69
2022/07/21 01:35:11;;;;;;;8.10;5.97;;;28.80;78.80;;;;;;5024535;28;20204;-69
2022/07/21 01:37:42;;;;;;;6.50;5.40;;;28.80;79.10;;;;;;5024660;28;20641;-69
2022/07/21 01:42:56;;;;;;;6.40;5.35;;;28.80;79.00;;;;;;5024668;28;20698;-70
2022/07/21 01:45:23;;;;;;;8.48;5.75;;;28.80;79.30;;;;;;5024572;28;20553;-69
2022/07/21 01:47:50;;;;;;;7.35;5.30;;;28.70;79.30;;;;;;5025892;28;20240;-69
2022/07/21 01:50:18;;;;;;;8.48;5.88;;;28.70;79.30;;;;;;5024696;28;20223;-69
2022/07/21 01:52:45;;;;;;;6.47;5.30;;;28.60;79.40;;;;;;5024621;28;20205;-69
2022/07/21 01:55:14;;;;;;;6.18;5.22;;;28.60;79.70;;;;;;5024203;28;20213;-69
2022/07/21 01:57:41;;;;;;;8.27;5.38;;;28.40;80.70;;;;;;5024522;28;20209;-69
2022/07/21 02:00:10;;;;;;;5.85;5.35;;;28.30;81.60;;;;;;5024099;28;20721;-69
2022/07/21 02:02:38;;;;;;;9.38;6.05;;;28.30;82.10;;;;;;5024325;28;20240;-68
2022/07/21 02:05:06;;;;;;;8.93;5.63;;;28.20;83.80;;;;;;5024117;28;20216;-68
2022/07/21 02:07:33;;;;;;;8.45;5.32;;;28.20;82.70;;;;;;5024333;28;20209;-68
2022/07/21 02:09:59;;;;;;;6.05;5.13;;;28.30;82.70;;;;;;5024276;28;20216;-68
2022/07/21 02:12:27;;;;;;;5.95;4.60;;;28.30;82.10;;;;;;5024126;28;20208;-67
2022/07/21 02:14:55;;;;;;;8.40;5.50;;;28.20;81.70;;;;;;5024244;28;20205;-68
2022/07/21 02:17:22;;;;;;;9.90;4.90;;;28.10;82.00;;;;;;5024254;28;20208;-69
2022/07/21 02:19:48;;;;;;;7.97;5.43;;;28.20;82.20;;;;;;5025328;28;21044;-67
2022/07/21 02:22:15;;;;;;;8.23;5.13;;;28.20;81.60;;;;;;5024307;28;20235;-69
2022/07/21 02:24:42;;;;;;;10.65;5.53;;;28.20;81.40;;;;;;5024208;28;20205;-69
2022/07/21 02:27:09;;;;;;;7.43;5.28;;;28.20;81.50;;;;;;5015784;28;20217;-68
2022/07/21 02:29:37;;;;;;;5.57;5.07;;;28.00;81.60;;;;;;5000185;28;20213;-67
2022/07/21 02:32:05;;;;;;;5.50;4.93;;;28.10;82.20;;;;;;5000648;28;20213;-67
2022/07/21 02:34:32;;;;;;;5.55;5.03;;;28.00;82.40;;;;;;5000282;28;20217;-67
2022/07/21 02:36:58;;;;;;;6.32;4.95;;;28.00;82.60;;;;;;5000787;28;20668;-68
2022/07/21 02:39:26;;;;;;;5.75;5.00;;;28.00;82.30;;;;;;5000635;28;20206;-67
2022/07/21 02:41:52;;;;;;;7.75;4.80;;;28.00;81.90;;;;;;5000000;28;20233;-68
2022/07/21 02:44:19;;;;;;;9.95;4.97;;;28.00;82.20;;;;;;5000178;28;20226;-67
2022/07/21 02:46:47;;;;;;;5.22;4.80;;;28.00;81.40;;;;;;5002872;28;20206;-67
2022/07/21 02:49:14;;;;;;;5.05;4.57;;;28.00;81.20;;;;;;5017489;27;20243;-67
2022/07/21 02:51:41;;;;;;;6.72;4.95;;;28.00;81.20;;;;;;5023745;28;20205;-68
2022/07/21 02:54:08;;;;;;;8.25;4.65;;;27.90;81.00;;;;;;5023483;28;20255;-67
2022/07/21 02:56:35;;;;;;;6.80;4.90;;;27.90;81.50;;;;;;5022867;28;20201;-67
2022/07/21 02:59:01;;;;;;;7.85;4.65;;;27.90;81.20;;;;;;5023101;28;20209;-67
2022/07/21 03:01:28;;;;;;;8.77;4.57;;;27.90;81.10;;;;;;5023341;28;20616;-68
2022/07/21 03:03:56;;;;;;;6.63;4.60;;;28.00;81.00;;;;;;5022988;28;20205;-68
2022/07/21 03:06:23;;;;;;;4.93;4.38;;;28.00;81.10;;;;;;5022225;28;20296;-67
2022/07/21 03:08:50;;;;;;;5.80;4.70;;;28.00;81.10;;;;;;5007587;28;20241;-68
2022/07/21 03:11:17;;;;;;;8.18;4.50;;;28.00;81.30;;;;;;5006627;28;20205;-68
2022/07/21 03:13:44;;;;;;;7.20;4.45;;;28.00;81.40;;;;;;5006929;28;20675;-68
2022/07/21 03:16:11;;;;;;;5.07;4.60;;;28.00;81.30;;;;;;5006947;28;20304;-68
2022/07/21 03:18:38;;;;;;;4.97;4.53;;;27.90;81.40;;;;;;5015888;27;20205;-68
2022/07/21 03:21:09;;;;;;;6.05;4.75;;;27.90;81.70;;;;;;5026634;28;20247;-68
2022/07/21 03:23:36;;;;;;;5.43;4.50;;;27.80;82.30;;;;;;5026498;28;20329;-68
2022/07/21 03:26:05;;;;;;;6.32;5.35;;;27.90;84.00;;;;;;5026504;28;20209;-68
2022/07/21 03:28:32;;;;;;;5.45;4.82;;;27.80;84.40;;;;;;5026347;28;20208;-67
2022/07/21 03:30:59;;;;;;;5.20;4.32;;;27.80;85.20;;;;;;5026427;28;20292;-67
2022/07/21 03:33:26;;;;;;;8.15;4.95;;;27.60;84.60;;;;;;5025982;28;20327;-68
2022/07/21 03:35:52;;;;;;;6.97;4.70;;;27.60;84.10;;;;;;5025885;28;20213;-68
2022/07/21 03:38:21;;;;;;;7.40;5.20;;;27.50;84.70;;;;;;5025823;28;20244;-67
2022/07/21 03:40:48;;;;;;;10.57;5.00;;;27.50;83.40;;;;;;5025523;28;20675;-68
2022/07/21 03:43:15;;;;;;;9.20;4.88;;;27.50;85.00;;;;;;5026060;28;20243;-68
2022/07/21 03:45:41;;;;;;;7.30;4.80;;;27.40;86.20;;;;;;5025747;28;20697;-68
2022/07/21 03:48:10;;;;;;;5.43;4.45;;;27.40;85.20;;;;;;5025680;28;20245;-68
2022/07/21 03:50:38;;;;;;;5.20;4.53;;;27.40;85.30;;;;;;5025744;28;20208;-68
2022/07/21 03:53:06;;;;;;;9.70;4.93;;;27.30;84.30;;;;;;5025832;28;20201;-68
2022/07/21 03:55:35;;;;;;;5.38;4.70;;;27.30;84.70;;;;;;5025158;28;20667;-68
2022/07/21 03:58:03;;;;;;;4.88;4.40;;;27.30;85.00;;;;;;5026052;28;20213;-68
2022/07/21 04:00:33;;;;;;;5.70;4.53;;;27.30;86.00;;;;;;5025658;28;20205;-68
2022/07/21 04:03:01;;;;;;;4.85;4.45;;;27.30;86.00;;;;;;5025420;28;20237;-68
2022/07/21 04:05:29;;;;;;;5.75;5.03;;;27.40;87.40;;;;;;5025581;28;21010;-68
2022/07/21 04:07:57;;;;;;;8.00;4.70;;;27.40;89.30;;;;;;5026192;28;20215;-68
2022/07/21 04:10:26;;;;;;;5.60;5.07;;;27.40;90.20;;;;;;5025680;28;20254;-68
2022/07/21 04:12:55;;;;;;;5.15;4.63;;;27.30;88.90;;;;;;5025496;28;20201;-68
2022/07/21 04:15:22;;;;;;;6.20;4.70;;;27.00;87.80;;;;;;5025695;28;20204;-68
2022/07/21 04:17:50;;;;;;;5.00;4.57;;;26.80;87.10;;;;;;5026818;27;20209;-68
2022/07/21 04:20:17;;;;;;;5.55;4.95;;;26.70;87.70;;;;;;5025609;28;20212;-68
2022/07/21 04:22:45;;;;;;;8.40;4.65;;;26.70;87.80;;;;;;5025102;28;20235;-68
2022/07/21 04:25:12;;;;;;;7.70;5.10;;;26.70;87.70;;;;;;5024867;28;20213;-68
2022/07/21 04:27:39;;;;;;;5.45;4.82;;;26.40;87.00;;;;;;5025472;28;20209;-69
2022/07/21 04:30:11;;;;;;;10.77;6.95;;;26.00;87.70;;;;;;5025365;28;20201;-68
2022/07/21 04:32:38;;;;;;;8.48;7.68;;;25.70;88.70;;;;;;5025438;28;20274;-68
2022/07/21 04:35:07;;;;;;;10.93;7.25;;;25.40;90.10;;;;;;5025110;28;20209;-68
2022/07/21 04:37:34;;;;;;;11.30;7.00;;;25.20;90.30;;;;;;5024904;28;20213;-68
2022/07/21 04:40:02;;;;;;;11.65;7.65;;;25.10;90.40;;;;;;5024836;28;20200;-68
2022/07/21 04:42:28;;;;;;;15.77;7.97;;;25.20;90.60;;;;;;5025131;28;20674;-68
2022/07/21 04:44:55;;;;;;;12.85;9.10;;;25.20;90.80;;;;;;5025236;28;20225;-68
2022/07/21 04:47:24;;;;;;;11.60;10.35;;;25.00;91.00;;;;;;5025376;28;20200;-68
2022/07/21 04:49:50;;;;;;;12.85;11.18;;;25.00;91.40;;;;;;4987206;28;20207;-68
2022/07/21 04:52:17;;;;;;;20.27;12.82;;;24.70;92.00;;;;;;4985888;28;20216;-68
2022/07/21 04:54:44;;;;;;;17.60;12.70;;;24.60;92.70;;;;;;4985944;28;20213;-68
2022/07/21 04:57:11;;;;;;;16.15;12.65;;;24.60;93.00;;;;;;4985648;28;20220;-68
2022/07/21 04:59:38;;;;;;;16.92;14.07;;;24.30;93.10;;;;;;4985714;28;20210;-68
2022/07/21 05:02:06;;;;;;;15.80;13.50;;;24.30;93.40;;;;;;4985711;28;20258;-68
2022/07/21 05:04:34;;;;;;;16.35;13.80;;;24.30;93.50;;;;;;4985326;28;20687;-68
2022/07/21 05:07:01;;;;;;;17.05;14.65;;;24.30;93.70;;;;;;4983701;28;20212;-68
2022/07/21 05:09:27;;;;;;;15.70;14.13;;;24.40;93.90;;;;;;4966382;28;20207;-68
2022/07/21 05:11:54;;;;;;;16.70;14.95;;;24.20;94.20;;;;;;4966145;28;20210;-68
2022/07/21 05:14:21;;;;;;;21.50;14.85;;;24.10;94.50;;;;;;4966260;28;20297;-68
2022/07/21 05:16:48;;;;;;;16.33;14.63;;;24.00;94.70;;;;;;4966258;28;20625;-68
2022/07/21 05:19:15;;;;;;;18.35;14.82;;;23.90;94.70;;;;;;4979659;28;20263;-67
2022/07/21 05:21:45;;;;;;;20.17;15.00;;;24.00;95.00;;;;;;4985403;28;20210;-68
2022/07/21 05:24:11;;;;;;;19.05;15.60;;;24.00;95.00;;;;;;4985252;28;20767;-68
2022/07/21 05:26:38;;;;;;;18.67;14.90;;;24.00;95.10;;;;;;4985141;28;20214;-68
2022/07/21 05:29:05;;;;;;;16.63;14.05;;;24.10;95.10;;;;;;4985446;28;20210;-68
2022/07/21 05:31:32;;;;;;;17.45;15.52;;;24.10;95.20;;;;;;4985185;28;20680;-68
2022/07/21 05:33:59;;;;;;;16.27;14.48;;;24.10;95.30;;;;;;4985527;28;20242;-68
2022/07/21 05:36:25;;;;;;;18.00;14.80;;;24.10;95.40;;;;;;4985411;28;20215;-68
2022/07/21 05:38:54;;;;;;;17.00;14.90;;;23.90;95.80;;;;;;4984944;28;20665;-68
2022/07/21 05:41:21;;;;;;;21.15;15.65;;;23.90;95.80;;;;;;4985287;28;20214;-68
2022/07/21 05:43:47;;;;;;;19.83;15.95;;;23.90;95.80;;;;;;4985189;28;20242;-68
2022/07/21 05:46:14;;;;;;;17.58;15.48;;;23.80;96.00;;;;;;4985325;28;20217;-67
2022/07/21 05:48:41;;;;;;;18.60;15.40;;;23.80;95.90;;;;;;5007068;28;20232;-68
2022/07/21 05:51:08;;;;;;;19.00;15.43;;;23.70;95.90;;;;;;5024052;28;20689;-68
2022/07/21 05:53:35;;;;;;;17.02;15.00;;;23.70;96.00;;;;;;5024136;28;20223;-67
2022/07/21 05:56:06;;;;;;;18.85;15.13;;;23.80;96.30;;;;;;5023929;28;20205;-68
2022/07/21 05:58:34;;;;;;;16.92;15.25;;;23.90;95.90;;;;;;5023909;28;20643;-68
2022/07/21 06:01:12;;;;;;;16.73;14.15;;;23.80;96.00;;;;;;5024192;28;20228;-68
2022/07/21 06:03:40;;;;;;;15.40;13.73;;;23.80;96.10;;;;;;5023913;28;20225;-68
2022/07/21 06:06:07;;;;;;;19.95;14.23;;;23.80;96.10;;;;;;5024342;28;20570;-68
2022/07/21 06:08:34;;;;;;;16.58;14.82;;;23.80;96.00;;;;;;5023933;28;20296;-68
2022/07/21 06:11:04;;;;;;;16.48;14.68;;;23.70;96.30;;;;;;5023860;28;20216;-67
2022/07/21 06:13:31;;;;;;;17.98;14.48;;;23.60;96.20;;;;;;5023591;28;20254;-66
2022/07/21 06:15:58;;;;;;;14.82;13.45;;;23.60;96.10;;;;;;5023904;28;20216;-68
2022/07/21 06:18:25;;;;;;;21.23;13.93;;;23.60;96.20;;;;;;5025532;28;20204;-68
2022/07/21 06:20:51;;;;;;;17.40;14.27;;;23.70;96.30;;;;;;5024935;28;20703;-68
2022/07/21 06:23:18;;;;;;;15.77;14.18;;;23.80;96.30;;;;;;5027290;28;20243;-68
2022/07/21 06:25:45;;;;;;;17.35;14.00;;;23.80;96.00;;;;;;5026944;28;20216;-68
2022/07/21 06:28:13;;;;;;;21.13;13.23;;;23.60;96.20;;;;;;5027514;28;20832;-68
2022/07/21 06:30:40;;;;;;;15.23;13.70;;;23.70;96.40;;;;;;5027466;28;20215;-68
2022/07/21 06:33:07;;;;;;;14.27;12.75;;;23.80;96.40;;;;;;5027564;28;20235;-68
2022/07/21 06:35:34;;;;;;;14.45;12.98;;;24.00;96.20;;;;;;5026860;28;20205;-68
2022/07/21 06:38:01;;;;;;;15.05;13.15;;;24.00;96.00;;;;;;5027328;28;20221;-68
2022/07/21 06:40:28;;;;;;;18.33;13.13;;;24.00;96.10;;;;;;5026659;28;20564;-68
2022/07/21 06:42:55;;;;;;;14.57;12.80;;;23.80;96.30;;;;;;5027163;28;20236;-67
2022/07/21 06:45:24;;;;;;;14.95;12.68;;;23.70;96.40;;;;;;5027350;28;20209;-68
2022/07/21 06:47:51;;;;;;;14.20;12.82;;;23.80;96.50;;;;;;5028359;27;20645;-68
2022/07/21 06:50:18;;;;;;;16.63;13.23;;;24.00;96.50;;;;;;5027032;28;20197;-68
2022/07/21 06:52:45;;;;;;;16.00;12.80;;;24.10;96.40;;;;;;5027082;28;20209;-68
2022/07/21 06:55:12;;;;;;;14.25;12.95;;;24.20;96.20;;;;;;5026859;28;20231;-68
2022/07/21 06:57:38;;;;;;;15.68;13.00;;;24.10;96.10;;;;;;5026894;28;20212;-68
2022/07/21 07:00:07;;;;;;;15.95;12.80;;;24.20;96.50;;;;;;5026674;28;20209;-68
2022/07/21 07:02:35;;;;;;;14.13;12.18;;;24.20;96.50;;;;;;5026377;28;20205;-68
2022/07/21 07:05:02;;;;;;;13.13;11.75;;;24.30;96.20;;;;;;5026943;28;20208;-68
2022/07/21 07:07:30;;;;;;;14.93;12.32;;;24.30;96.20;;;;;;5026988;28;20205;-68
2022/07/21 07:09:57;;;;;;;13.02;11.85;;;24.40;96.30;;;;;;5026918;28;20224;-68
2022/07/21 07:12:23;;;;;;;14.02;12.15;;;24.50;96.00;;;;;;5026942;28;20236;-68
2022/07/21 07:14:50;;;;;;;14.93;12.20;;;24.60;95.70;;;;;;5026758;28;20211;-68
2022/07/21 07:17:18;;;;;;;12.98;11.73;;;24.70;95.70;;;;;;5026628;28;20581;-68
2022/07/21 07:19:47;;;;;;;14.93;12.38;;;24.80;95.80;;;;;;5027560;27;20213;-68
2022/07/21 07:22:14;;;;;;;13.50;11.57;;;24.70;96.10;;;;;;5026941;28;20244;-68
2022/07/21 07:24:41;;;;;;;13.52;12.10;;;24.80;96.00;;;;;;5026258;28;20245;-69
2022/07/21 07:27:08;;;;;;;14.43;11.32;;;24.80;96.00;;;;;;5026543;28;20208;-68
2022/07/21 07:29:35;;;;;;;14.18;12.30;;;24.80;96.00;;;;;;5026562;28;20215;-67
2022/07/21 07:32:02;;;;;;;13.07;11.75;;;24.90;96.00;;;;;;5026291;28;20201;-68
2022/07/21 07:34:28;;;;;;;12.77;11.50;;;24.80;96.00;;;;;;5026306;28;20221;-68
2022/07/21 07:36:57;;;;;;;12.57;11.27;;;24.80;96.10;;;;;;5026272;28;20209;-68
2022/07/21 07:39:23;;;;;;;16.35;11.30;;;24.80;96.10;;;;;;5026080;28;20567;-68
2022/07/21 07:41:50;;;;;;;17.35;10.98;;;25.00;96.00;;;;;;5026033;28;20213;-68
2022/07/21 07:44:17;;;;;;;14.10;11.43;;;25.10;95.90;;;;;;5026025;28;20247;-68
2022/07/21 07:46:44;;;;;;;13.98;10.05;;;25.30;95.90;;;;;;5025658;28;20760;-68
2022/07/21 07:49:11;;;;;;;12.50;10.35;;;25.40;96.10;;;;;;5027509;27;20244;-68
2022/07/21 07:51:38;;;;;;;11.63;10.07;;;25.50;95.80;;;;;;5026012;28;20205;-68
2022/07/21 07:54:06;;;;;;;11.95;10.57;;;25.60;95.50;;;;;;5025932;28;20213;-67
2022/07/21 07:56:33;;;;;;;11.57;10.48;;;25.60;95.70;;;;;;5025376;28;20566;-68
2022/07/21 07:58:59;;;;;;;12.90;10.13;;;25.60;95.50;;;;;;5026101;28;20207;-68
2022/07/21 08:01:26;;;;;;;11.15;10.15;;;25.40;95.40;;;;;;5026112;28;20208;-68
2022/07/21 08:03:53;;;;;;;16.13;11.00;;;25.40;95.60;;;;;;5026031;28;20225;-68
2022/07/21 08:06:20;;;;;;;19.00;10.73;;;25.40;95.50;;;;;;5025884;28;20213;-68
2022/07/21 08:08:47;;;;;;;10.80;9.60;;;25.40;95.70;;;;;;5025678;28;20675;-68
2022/07/21 08:11:15;;;;;;;12.48;10.15;;;25.50;95.90;;;;;;5025673;28;20215;-68
2022/07/21 08:13:42;;;;;;;13.48;10.55;;;25.50;95.60;;;;;;5025675;28;20209;-67
2022/07/21 08:16:11;;;;;;;11.05;9.90;;;25.60;95.70;;;;;;5025470;28;20212;-68
2022/07/21 08:18:38;;;;;;;10.77;9.75;;;25.70;95.60;;;;;;5025407;28;20260;-68
2022/07/21 08:21:09;;;;;;;11.90;9.68;;;25.80;95.50;;;;;;5025410;28;20571;-68
2022/07/21 08:23:36;;;;;;;11.93;9.38;;;26.10;95.60;;;;;;5025172;28;20260;-68
2022/07/21 08:26:06;;;;;;;11.10;9.80;;;26.10;95.40;;;;;;5025140;28;20255;-68
2022/07/21 08:28:34;;;;;;;14.02;10.95;;;26.30;95.50;;;;;;5025430;28;20197;-68
2022/07/21 08:31:01;;;;;;;12.77;9.55;;;26.40;94.90;;;;;;5025214;28;20209;-68
2022/07/21 08:33:28;;;;;;;9.70;8.70;;;26.50;95.30;;;;;;5025449;28;20215;-68
2022/07/21 08:35:55;;;;;;;16.50;9.65;;;26.70;95.30;;;;;;5025095;28;20212;-68
2022/07/21 08:38:22;;;;;;;10.38;9.18;;;26.70;94.10;;;;;;5025232;28;20209;-68
2022/07/21 08:40:48;;;;;;;9.90;8.93;;;26.70;93.80;;;;;;5024624;28;20504;-68
2022/07/21 08:43:17;;;;;;;13.75;9.25;;;26.70;93.90;;;;;;5023776;28;20688;-68
2022/07/21 08:45:45;;;;;;;9.25;8.35;;;26.60;93.90;;;;;;5024933;28;20261;-69
2022/07/21 08:48:17;;;;;;;13.00;8.80;;;26.50;93.80;;;;;;5026245;28;20252;-68
2022/07/21 08:50:44;;;;;;;10.80;9.00;;;26.50;93.80;;;;;;5024839;28;20197;-68
2022/07/21 08:53:11;;;;;;;10.48;8.82;;;26.60;93.70;;;;;;5024690;28;20215;-68
2022/07/21 08:55:39;;;;;;;10.25;8.23;;;26.70;94.00;;;;;;5024682;28;20253;-68
2022/07/21 08:58:09;;;;;;;11.65;8.93;;;26.70;93.60;;;;;;5024659;28;20615;-68
2022/07/21 09:00:37;;;;;;;12.23;8.98;;;26.80;93.60;;;;;;5024563;28;20242;-68
2022/07/21 09:03:14;;;;;;;9.70;8.73;;;27.00;93.70;;;;;;5025010;28;20205;-68
2022/07/21 09:05:41;;;;;;;11.88;9.20;;;26.90;93.60;;;;;;5024646;28;20283;-68
2022/07/21 09:08:08;;;;;;;9.55;8.32;;;26.90;93.60;;;;;;5024788;28;20219;-68
2022/07/21 09:10:35;;;;;;;10.93;8.90;;;26.90;93.40;;;;;;5024432;28;20212;-68
2022/07/21 09:13:05;;;;;;;9.50;8.52;;;26.90;93.20;;;;;;5024417;28;20659;-68
2022/07/21 09:15:32;;;;;;;10.35;8.32;;;27.10;93.60;;;;;;5024438;28;20812;-68
2022/07/21 09:18:12;;;;;;;9.85;8.45;;;27.10;93.40;;;;;;5026046;27;20581;-68
2022/07/21 09:20:47;;;;;;;10.27;8.50;;;27.30;93.30;;;;;;5024835;28;20205;-68
2022/07/21 09:23:19;;;;;;;10.07;8.80;;;27.40;93.10;;;;;;5024343;28;20188;-68
2022/07/21 09:25:48;;;;;;;8.90;7.72;;;27.50;92.90;;;;;;5024369;28;20763;-68
2022/07/21 09:28:17;;;;;;;8.77;7.47;;;27.60;92.60;;;;;;5024779;28;20209;-68
2022/07/21 09:30:59;;;;;;;9.15;8.25;;;27.60;92.30;;;;;;5024222;28;20674;-68
2022/07/21 09:33:31;;;;;;;9.23;7.80;;;27.60;92.70;;;;;;5024482;28;20571;-68
2022/07/21 09:36:12;;;;;;;7.00;6.38;;;27.70;92.00;;;;;;5024050;28;20647;-68
2022/07/21 09:38:42;;;;;;;7.63;6.80;;;27.90;91.50;;;;;;5024647;28;20193;-69
2022/07/21 09:41:12;;;;;;;8.32;6.78;;;28.00;91.70;;;;;;5024644;28;20266;-68
2022/07/21 09:43:44;;;;;;;7.57;6.85;;;28.10;91.30;;;;;;5023855;28;20754;-69
2022/07/21 09:46:14;;;;;;;9.00;7.00;;;28.20;91.30;;;;;;5024449;28;20204;-68
2022/07/21 09:48:45;;;;;;;7.20;6.22;;;28.10;91.10;;;;;;5025370;27;20244;-68
2022/07/21 09:51:27;;;;;;;6.43;5.82;;;28.00;91.00;;;;;;5024240;28;20631;-68
2022/07/21 09:53:57;;;;;;;14.38;6.95;;;27.90;91.00;;;;;;5024329;28;20208;-68
2022/07/21 09:56:25;;;;;;;6.43;5.82;;;28.00;91.10;;;;;;5027398;28;20370;-68
2022/07/21 09:58:54;;;;;;;9.52;5.93;;;27.90;91.00;;;;;;5027212;28;20211;-68
2022/07/21 10:01:22;;;;;;;8.02;6.00;;;27.90;90.90;;;;;;5027544;28;20208;-68
2022/07/21 10:03:51;;;;;;;6.72;5.90;;;27.80;91.00;;;;;;5027610;28;20319;-68
2022/07/21 10:06:19;;;;;;;6.57;5.97;;;27.80;91.00;;;;;;5027355;28;20663;-68
2022/07/21 10:08:47;;;;;;;10.10;5.68;;;27.90;91.80;;;;;;5027378;28;20232;-68
2022/07/21 10:11:14;;;;;;;8.32;5.63;;;27.90;91.80;;;;;;5027320;28;20208;-68
2022/07/21 10:13:41;;;;;;;5.88;5.32;;;27.90;91.00;;;;;;5026934;28;20693;-68
2022/07/21 10:16:11;;;;;;;6.90;5.50;;;27.80;91.00;;;;;;5027308;28;20209;-68
2022/07/21 10:18:45;;;;;;;8.48;6.18;;;27.80;91.10;;;;;;5029026;27;20208;-68
2022/07/21 10:21:24;;;;;;;6.13;5.38;;;27.70;91.00;;;;;;5027371;28;20213;-68
2022/07/21 10:23:54;;;;;;;5.90;5.30;;;27.70;91.10;;;;;;5027260;28;20231;-68
2022/07/21 10:26:21;;;;;;;5.55;4.72;;;27.60;91.10;;;;;;5027008;28;20197;-67
2022/07/21 10:28:48;;;;;;;8.25;5.63;;;27.60;91.30;;;;;;5027225;28;20212;-68
2022/07/21 10:31:18;;;;;;;5.60;5.20;;;27.50;91.40;;;;;;5027323;28;20201;-67
2022/07/21 10:34:02;;;;;;;5.57;4.97;;;27.50;91.50;;;;;;5027354;28;20197;-67
2022/07/21 10:36:47;;;;;;;5.25;4.72;;;27.50;91.70;;;;;;5027123;28;20197;-67
2022/07/21 10:39:32;;;;;;;9.40;4.72;;;27.40;91.50;;;;;;5026960;28;20197;-67
2022/07/21 10:42:01;;;;;;;6.13;4.90;;;27.50;91.70;;;;;;5026935;28;20208;-67
2022/07/21 10:44:48;;;;;;;5.53;4.60;;;27.30;91.70;;;;;;5026547;28;20284;-67
2022/07/21 10:47:18;;;;;;;8.80;4.78;;;27.30;91.90;;;;;;5026579;28;20640;-68
2022/07/21 10:49:51;;;;;;;8.30;4.85;;;27.30;91.90;;;;;;5027984;28;20867;-67
2022/07/21 10:52:51;;;;;;;5.75;5.15;;;27.40;91.80;;;;;;5026759;28;20565;-68
2022/07/21 10:55:27;;;;;;;7.35;5.13;;;27.50;91.90;;;;;;5027420;27;20215;-67
2022/07/21 10:58:25;;;;;;;6.55;4.85;;;27.60;92.10;;;;;;5026634;28;20312;-68
2022/07/21 11:00:54;;;;;;;7.43;5.15;;;27.50;92.20;;;;;;5086849;28;20211;-69
2022/07/21 11:03:26;;;;;;;7.60;4.78;;;27.60;92.10;;;;;;5039302;28;20253;-67
2022/07/21 11:06:30;;;;;;;6.35;4.90;;;27.50;92.30;;;;;;5025931;28;20307;-67
2022/07/21 11:09:09;;;;;;;10.05;5.13;;;27.60;92.60;;;;;;5026794;28;20247;-67
2022/07/21 11:11:40;;;;;;;8.57;5.30;;;27.80;92.80;;;;;;5026075;28;20240;-67
2022/07/21 11:14:08;;;;;;;6.43;5.05;;;28.00;92.80;;;;;;5026484;28;20204;-67
2022/07/21 11:17:02;;;;;;;5.93;5.18;;;28.10;92.40;;;;;;5026329;28;20212;-68
2022/07/21 11:19:31;;;;;;;7.00;5.40;;;28.00;92.00;;;;;;5029532;27;20244;-67
2022/07/21 11:22:01;;;;;;;7.57;5.22;;;27.90;91.80;;;;;;5026316;28;20550;-67
2022/07/21 11:24:29;;;;;;;9.15;5.60;;;27.90;91.90;;;;;;5026583;28;20395;-67
2022/07/21 11:26:59;;;;;;;8.88;5.57;;;27.90;91.90;;;;;;5025971;28;20585;-67
2022/07/21 11:29:26;;;;;;;8.57;5.10;;;27.80;91.60;;;;;;5026431;28;20220;-67
2022/07/21 11:31:53;;;;;;;7.95;5.22;;;27.70;91.70;;;;;;5026107;28;20239;-68
2022/07/21 11:34:21;;;;;;;7.13;5.20;;;27.70;91.70;;;;;;5026411;28;20216;-67
2022/07/21 11:36:48;;;;;;;6.00;5.50;;;27.70;91.70;;;;;;5026144;28;20304;-68
2022/07/21 11:39:18;;;;;;;5.95;4.97;;;27.70;91.70;;;;;;5026079;28;20219;-67
2022/07/21 11:41:46;;;;;;;8.93;4.90;;;27.60;91.70;;;;;;5025746;28;20535;-67
2022/07/21 11:44:24;;;;;;;6.30;5.07;;;27.50;91.90;;;;;;5026259;28;20278;-67
2022/07/21 11:46:53;;;;;;;5.35;4.55;;;27.50;91.70;;;;;;5026385;28;20192;-68
2022/07/21 11:49:21;;;;;;;7.68;4.80;;;27.30;91.60;;;;;;5095949;27;20624;-67
2022/07/21 11:51:54;;;;;;;5.68;4.50;;;27.20;91.80;;;;;;5130235;27;20202;-67
2022/07/21 11:54:26;;;;;;;5.90;5.18;;;27.30;91.80;;;;;;5130029;27;20732;-67
2022/07/21 11:56:54;;;;;;;8.15;4.43;;;27.10;92.00;;;;;;5129719;27;20189;-67
2022/07/21 11:59:23;;;;;;;4.90;4.50;;;26.90;92.00;;;;;;5129830;27;20205;-67
2022/07/21 12:01:55;;;;;;;8.55;4.72;;;26.80;92.20;;;;;;5130080;27;20201;-67
2022/07/21 12:04:44;;;;;;;6.90;5.20;;;26.70;92.50;;;;;;5129553;27;20229;-67
2022/07/21 12:07:18;;;;;;;9.10;4.55;;;26.80;92.60;;;;;;5125568;27;20555;-67
2022/07/21 12:09:48;;;;;;;6.90;4.97;;;26.70;93.00;;;;;;5129979;27;20231;-67
2022/07/21 12:12:14;;;;;;;6.10;4.72;;;26.70;93.70;;;;;;5129683;27;20212;-67
2022/07/21 12:14:49;;;;;;;6.22;5.00;;;26.70;93.90;;;;;;5129464;27;20213;-67
2022/07/21 12:17:18;;;;;;;5.75;5.25;;;26.70;93.60;;;;;;5129260;27;20189;-67
2022/07/21 12:19:45;;;;;;;7.80;5.72;;;26.60;94.00;;;;;;5041418;27;20212;-67
2022/07/21 12:22:12;;;;;;;7.53;5.40;;;26.50;94.20;;;;;;5025253;28;20571;-67
2022/07/21 12:24:54;;;;;;;7.18;5.13;;;26.50;94.50;;;;;;5025230;28;20240;-67
2022/07/21 12:27:22;;;;;;;7.00;6.03;;;26.40;94.70;;;;;;5025310;28;20390;-67
2022/07/21 12:29:50;;;;;;;5.65;5.25;;;26.40;95.40;;;;;;5025367;28;20205;-67
2022/07/21 12:32:42;;;;;;;10.80;5.47;;;26.50;95.30;;;;;;5025354;28;20205;-67
2022/07/21 12:35:22;;;;;;;9.65;6.10;;;26.50;95.80;;;;;;5025469;28;20280;-67
2022/07/21 12:38:00;;;;;;;7.10;5.93;;;26.50;96.00;;;;;;5025270;28;20203;-67
2022/07/21 12:40:29;;;;;;;6.95;5.55;;;26.50;97.30;;;;;;5024370;28;20208;-68
2022/07/21 12:43:14;;;;;;;8.60;6.00;;;26.60;97.90;;;;;;5025509;28;20232;-67
2022/07/21 12:45:57;;;;;;;6.85;6.18;;;26.60;98.70;;;;;;5025349;28;20585;-67
2022/07/21 12:48:25;;;;;;;9.02;6.45;;;26.70;99.40;;;;;;5026310;27;20240;-67
2022/07/21 12:51:14;;;;;;;8.75;6.05;;;26.70;99.30;;;;;;5025032;28;20208;-67
2022/07/21 12:53:44;;;;;;;7.65;6.45;;;26.80;99.90;;;;;;5024771;28;20659;-67